<?xml version="1.0" encoding="UTF-8" standalone="no" ?>
<gpx xmlns="http://www.topografix.com/GPX/1/1" xmlns:xsi="http://www.w3.org/2001/XMLSchema-instance" xsi:schemaLocation="http://www.topografix.com/GPX/1/1 http://www.topografix.com/GPX/1/1/gpx.xsd" version="1.1" creator="VisuGPX - https://www.visugpx.com">
  <metadata>
    <name>2023-01-12-46-Cieurac sentier des truffes</name>
    <desc><![CDATA[randonnée de 10 km sans difficulté deux chateau sur le parcours, des gariottes, lavoir-fontaines et de beaux chemins]]></desc>
  </metadata>
  <trk>
    <name><![CDATA[2023-01-06 16:04:04]]></name>
    <trkseg>
      <trkpt lat="44.35982" lon="1.53184">
        <ele>266.42</ele>
        <time>2023-01-06T12:33:59Z</time>
      </trkpt>
      <trkpt lat="44.35982" lon="1.53185">
        <ele>264.02</ele>
        <time>2023-01-06T12:34:37Z</time>
      </trkpt>
      <trkpt lat="44.35984" lon="1.53187">
        <ele>264.5</ele>
        <time>2023-01-06T12:35:12Z</time>
      </trkpt>
      <trkpt lat="44.35987" lon="1.53184">
        <ele>266.9</ele>
        <time>2023-01-06T12:35:33Z</time>
      </trkpt>
      <trkpt lat="44.36002" lon="1.53177">
        <ele>264.02</ele>
        <time>2023-01-06T12:35:49Z</time>
      </trkpt>
      <trkpt lat="44.36014" lon="1.53151">
        <ele>261.62</ele>
        <time>2023-01-06T12:36:06Z</time>
      </trkpt>
      <trkpt lat="44.36042" lon="1.53142">
        <ele>260.65</ele>
        <time>2023-01-06T12:36:28Z</time>
      </trkpt>
      <trkpt lat="44.36064" lon="1.53125">
        <ele>256.81</ele>
        <time>2023-01-06T12:36:47Z</time>
      </trkpt>
      <trkpt lat="44.36087" lon="1.53115">
        <ele>256.81</ele>
        <time>2023-01-06T12:37:05Z</time>
      </trkpt>
      <trkpt lat="44.36112" lon="1.53098">
        <ele>256.81</ele>
        <time>2023-01-06T12:37:26Z</time>
      </trkpt>
      <trkpt lat="44.36136" lon="1.5308">
        <ele>258.25</ele>
        <time>2023-01-06T12:37:45Z</time>
      </trkpt>
      <trkpt lat="44.36157" lon="1.53065">
        <ele>255.37</ele>
        <time>2023-01-06T12:38:03Z</time>
      </trkpt>
      <trkpt lat="44.36175" lon="1.53051">
        <ele>253.93</ele>
        <time>2023-01-06T12:38:19Z</time>
      </trkpt>
      <trkpt lat="44.36197" lon="1.53035">
        <ele>254.89</ele>
        <time>2023-01-06T12:38:38Z</time>
      </trkpt>
      <trkpt lat="44.36219" lon="1.53017">
        <ele>252.96</ele>
        <time>2023-01-06T12:38:57Z</time>
      </trkpt>
      <trkpt lat="44.36224" lon="1.53005">
        <ele>250.08</ele>
        <time>2023-01-06T12:39:07Z</time>
      </trkpt>
      <trkpt lat="44.36224" lon="1.5298">
        <ele>246.23</ele>
        <time>2023-01-06T12:39:24Z</time>
      </trkpt>
      <trkpt lat="44.36223" lon="1.52949">
        <ele>241.43</ele>
        <time>2023-01-06T12:39:42Z</time>
      </trkpt>
      <trkpt lat="44.36219" lon="1.52919">
        <ele>243.83</ele>
        <time>2023-01-06T12:39:59Z</time>
      </trkpt>
      <trkpt lat="44.36211" lon="1.52892">
        <ele>248.16</ele>
        <time>2023-01-06T12:40:15Z</time>
      </trkpt>
      <trkpt lat="44.36209" lon="1.52888">
        <ele>247.2</ele>
        <time>2023-01-06T12:40:19Z</time>
      </trkpt>
      <trkpt lat="44.36187" lon="1.52877">
        <ele>246.72</ele>
        <time>2023-01-06T12:40:39Z</time>
      </trkpt>
      <trkpt lat="44.3616" lon="1.52874">
        <ele>241.91</ele>
        <time>2023-01-06T12:41:00Z</time>
      </trkpt>
      <trkpt lat="44.36142" lon="1.52874">
        <ele>238.54</ele>
        <time>2023-01-06T12:41:17Z</time>
      </trkpt>
      <trkpt lat="44.36124" lon="1.52875">
        <ele>237.1</ele>
        <time>2023-01-06T12:41:34Z</time>
      </trkpt>
      <trkpt lat="44.3611" lon="1.52877">
        <ele>236.14</ele>
        <time>2023-01-06T12:41:51Z</time>
      </trkpt>
      <trkpt lat="44.36106" lon="1.52871">
        <ele>238.06</ele>
        <time>2023-01-06T12:42:01Z</time>
      </trkpt>
      <trkpt lat="44.36126" lon="1.52856">
        <ele>237.1</ele>
        <time>2023-01-06T12:42:21Z</time>
      </trkpt>
      <trkpt lat="44.36143" lon="1.52844">
        <ele>236.14</ele>
        <time>2023-01-06T12:42:38Z</time>
      </trkpt>
      <trkpt lat="44.36154" lon="1.52834">
        <ele>232.78</ele>
        <time>2023-01-06T12:42:50Z</time>
      </trkpt>
      <trkpt lat="44.36163" lon="1.52824">
        <ele>230.85</ele>
        <time>2023-01-06T12:43:06Z</time>
      </trkpt>
      <trkpt lat="44.36179" lon="1.5281">
        <ele>223.64</ele>
        <time>2023-01-06T12:43:24Z</time>
      </trkpt>
      <trkpt lat="44.36203" lon="1.52794">
        <ele>220.76</ele>
        <time>2023-01-06T12:43:46Z</time>
      </trkpt>
      <trkpt lat="44.36229" lon="1.52781">
        <ele>217.4</ele>
        <time>2023-01-06T12:44:08Z</time>
      </trkpt>
      <trkpt lat="44.36248" lon="1.52769">
        <ele>216.43</ele>
        <time>2023-01-06T12:44:26Z</time>
      </trkpt>
      <trkpt lat="44.36266" lon="1.52761">
        <ele>215.47</ele>
        <time>2023-01-06T12:44:42Z</time>
      </trkpt>
      <trkpt lat="44.36288" lon="1.52751">
        <ele>213.07</ele>
        <time>2023-01-06T12:45:01Z</time>
      </trkpt>
      <trkpt lat="44.36308" lon="1.52746">
        <ele>211.15</ele>
        <time>2023-01-06T12:45:18Z</time>
      </trkpt>
      <trkpt lat="44.36327" lon="1.52731">
        <ele>212.11</ele>
        <time>2023-01-06T12:45:36Z</time>
      </trkpt>
      <trkpt lat="44.36345" lon="1.52705">
        <ele>209.7</ele>
        <time>2023-01-06T12:45:55Z</time>
      </trkpt>
      <trkpt lat="44.36358" lon="1.52682">
        <ele>206.82</ele>
        <time>2023-01-06T12:46:14Z</time>
      </trkpt>
      <trkpt lat="44.36368" lon="1.52657">
        <ele>207.78</ele>
        <time>2023-01-06T12:46:30Z</time>
      </trkpt>
      <trkpt lat="44.36376" lon="1.52631">
        <ele>210.67</ele>
        <time>2023-01-06T12:46:46Z</time>
      </trkpt>
      <trkpt lat="44.36387" lon="1.52603">
        <ele>209.22</ele>
        <time>2023-01-06T12:47:04Z</time>
      </trkpt>
      <trkpt lat="44.36396" lon="1.52579">
        <ele>208.26</ele>
        <time>2023-01-06T12:47:18Z</time>
      </trkpt>
      <trkpt lat="44.36409" lon="1.52545">
        <ele>210.19</ele>
        <time>2023-01-06T12:47:39Z</time>
      </trkpt>
      <trkpt lat="44.36422" lon="1.52507">
        <ele>211.15</ele>
        <time>2023-01-06T12:48:02Z</time>
      </trkpt>
      <trkpt lat="44.36427" lon="1.52479">
        <ele>210.67</ele>
        <time>2023-01-06T12:48:20Z</time>
      </trkpt>
      <trkpt lat="44.36435" lon="1.52448">
        <ele>211.63</ele>
        <time>2023-01-06T12:48:38Z</time>
      </trkpt>
      <trkpt lat="44.36444" lon="1.52415">
        <ele>211.63</ele>
        <time>2023-01-06T12:48:57Z</time>
      </trkpt>
      <trkpt lat="44.36454" lon="1.52391">
        <ele>206.82</ele>
        <time>2023-01-06T12:49:15Z</time>
      </trkpt>
      <trkpt lat="44.36468" lon="1.52372">
        <ele>202.49</ele>
        <time>2023-01-06T12:49:33Z</time>
      </trkpt>
      <trkpt lat="44.36473" lon="1.52365">
        <ele>201.53</ele>
        <time>2023-01-06T12:49:39Z</time>
      </trkpt>
      <trkpt lat="44.36477" lon="1.52355">
        <ele>202.49</ele>
        <time>2023-01-06T12:49:48Z</time>
      </trkpt>
      <trkpt lat="44.36472" lon="1.52339">
        <ele>199.13</ele>
        <time>2023-01-06T12:50:00Z</time>
      </trkpt>
      <trkpt lat="44.36469" lon="1.52329">
        <ele>200.09</ele>
        <time>2023-01-06T12:50:05Z</time>
      </trkpt>
      <trkpt lat="44.36466" lon="1.52316">
        <ele>202.01</ele>
        <time>2023-01-06T12:50:10Z</time>
      </trkpt>
      <trkpt lat="44.36466" lon="1.52275">
        <ele>202.98</ele>
        <time>2023-01-06T12:50:30Z</time>
      </trkpt>
      <trkpt lat="44.3647" lon="1.52241">
        <ele>202.98</ele>
        <time>2023-01-06T12:50:49Z</time>
      </trkpt>
      <trkpt lat="44.3647" lon="1.52215">
        <ele>204.42</ele>
        <time>2023-01-06T12:51:04Z</time>
      </trkpt>
      <trkpt lat="44.36462" lon="1.52179">
        <ele>201.53</ele>
        <time>2023-01-06T12:51:26Z</time>
      </trkpt>
      <trkpt lat="44.36455" lon="1.52151">
        <ele>201.53</ele>
        <time>2023-01-06T12:51:43Z</time>
      </trkpt>
      <trkpt lat="44.36453" lon="1.52115">
        <ele>204.42</ele>
        <time>2023-01-06T12:52:02Z</time>
      </trkpt>
      <trkpt lat="44.36452" lon="1.52081">
        <ele>203.46</ele>
        <time>2023-01-06T12:52:22Z</time>
      </trkpt>
      <trkpt lat="44.36443" lon="1.52054">
        <ele>198.17</ele>
        <time>2023-01-06T12:52:41Z</time>
      </trkpt>
      <trkpt lat="44.36428" lon="1.52032">
        <ele>198.17</ele>
        <time>2023-01-06T12:52:59Z</time>
      </trkpt>
      <trkpt lat="44.36409" lon="1.52006">
        <ele>198.17</ele>
        <time>2023-01-06T12:53:20Z</time>
      </trkpt>
      <trkpt lat="44.36391" lon="1.51984">
        <ele>200.57</ele>
        <time>2023-01-06T12:53:37Z</time>
      </trkpt>
      <trkpt lat="44.36376" lon="1.51967">
        <ele>204.9</ele>
        <time>2023-01-06T12:53:54Z</time>
      </trkpt>
      <trkpt lat="44.36377" lon="1.51967">
        <ele>204.42</ele>
        <time>2023-01-06T12:53:58Z</time>
      </trkpt>
      <trkpt lat="44.36384" lon="1.51955">
        <ele>202.49</ele>
        <time>2023-01-06T12:54:08Z</time>
      </trkpt>
      <trkpt lat="44.36406" lon="1.51932">
        <ele>201.53</ele>
        <time>2023-01-06T12:54:28Z</time>
      </trkpt>
      <trkpt lat="44.3642" lon="1.51909">
        <ele>202.98</ele>
        <time>2023-01-06T12:54:44Z</time>
      </trkpt>
      <trkpt lat="44.36437" lon="1.51888">
        <ele>200.09</ele>
        <time>2023-01-06T12:55:03Z</time>
      </trkpt>
      <trkpt lat="44.36439" lon="1.51885">
        <ele>200.57</ele>
        <time>2023-01-06T12:55:05Z</time>
      </trkpt>
      <trkpt lat="44.36432" lon="1.51874">
        <ele>202.01</ele>
        <time>2023-01-06T12:55:13Z</time>
      </trkpt>
      <trkpt lat="44.36411" lon="1.51868">
        <ele>201.05</ele>
        <time>2023-01-06T12:55:32Z</time>
      </trkpt>
      <trkpt lat="44.36388" lon="1.51855">
        <ele>203.94</ele>
        <time>2023-01-06T12:55:52Z</time>
      </trkpt>
      <trkpt lat="44.36365" lon="1.51836">
        <ele>206.34</ele>
        <time>2023-01-06T12:56:13Z</time>
      </trkpt>
      <trkpt lat="44.36345" lon="1.51821">
        <ele>209.7</ele>
        <time>2023-01-06T12:56:32Z</time>
      </trkpt>
      <trkpt lat="44.36328" lon="1.51803">
        <ele>207.3</ele>
        <time>2023-01-06T12:56:48Z</time>
      </trkpt>
      <trkpt lat="44.36311" lon="1.51786">
        <ele>210.19</ele>
        <time>2023-01-06T12:57:04Z</time>
      </trkpt>
      <trkpt lat="44.36288" lon="1.51767">
        <ele>214.51</ele>
        <time>2023-01-06T12:57:24Z</time>
      </trkpt>
      <trkpt lat="44.36268" lon="1.51743">
        <ele>212.59</ele>
        <time>2023-01-06T12:57:45Z</time>
      </trkpt>
      <trkpt lat="44.36252" lon="1.51726">
        <ele>214.51</ele>
        <time>2023-01-06T12:58:02Z</time>
      </trkpt>
      <trkpt lat="44.36241" lon="1.51708">
        <ele>214.03</ele>
        <time>2023-01-06T12:58:16Z</time>
      </trkpt>
      <trkpt lat="44.36225" lon="1.5169">
        <ele>213.07</ele>
        <time>2023-01-06T12:58:32Z</time>
      </trkpt>
      <trkpt lat="44.36204" lon="1.51666">
        <ele>215.47</ele>
        <time>2023-01-06T12:58:52Z</time>
      </trkpt>
      <trkpt lat="44.36191" lon="1.51652">
        <ele>217.88</ele>
        <time>2023-01-06T12:59:05Z</time>
      </trkpt>
      <trkpt lat="44.36185" lon="1.51644">
        <ele>218.36</ele>
        <time>2023-01-06T12:59:11Z</time>
      </trkpt>
      <trkpt lat="44.36171" lon="1.51621">
        <ele>217.88</ele>
        <time>2023-01-06T12:59:29Z</time>
      </trkpt>
      <trkpt lat="44.36161" lon="1.51603">
        <ele>216.91</ele>
        <time>2023-01-06T12:59:44Z</time>
      </trkpt>
      <trkpt lat="44.36155" lon="1.51586">
        <ele>218.36</ele>
        <time>2023-01-06T12:59:59Z</time>
      </trkpt>
      <trkpt lat="44.36151" lon="1.51576">
        <ele>222.68</ele>
        <time>2023-01-06T13:00:14Z</time>
      </trkpt>
      <trkpt lat="44.36146" lon="1.51592">
        <ele>218.36</ele>
        <time>2023-01-06T13:00:31Z</time>
      </trkpt>
      <trkpt lat="44.36142" lon="1.51598">
        <ele>215.47</ele>
        <time>2023-01-06T13:00:37Z</time>
      </trkpt>
      <trkpt lat="44.36137" lon="1.51603">
        <ele>214.03</ele>
        <time>2023-01-06T13:00:42Z</time>
      </trkpt>
      <trkpt lat="44.36118" lon="1.51605">
        <ele>216.43</ele>
        <time>2023-01-06T13:00:58Z</time>
      </trkpt>
      <trkpt lat="44.36115" lon="1.51603">
        <ele>217.88</ele>
        <time>2023-01-06T13:01:07Z</time>
      </trkpt>
      <trkpt lat="44.3611" lon="1.51594">
        <ele>216.91</ele>
        <time>2023-01-06T13:01:20Z</time>
      </trkpt>
      <trkpt lat="44.36106" lon="1.51589">
        <ele>215.95</ele>
        <time>2023-01-06T13:01:26Z</time>
      </trkpt>
      <trkpt lat="44.36092" lon="1.51571">
        <ele>213.07</ele>
        <time>2023-01-06T13:01:40Z</time>
      </trkpt>
      <trkpt lat="44.36075" lon="1.51552">
        <ele>210.19</ele>
        <time>2023-01-06T13:01:56Z</time>
      </trkpt>
      <trkpt lat="44.3606" lon="1.51535">
        <ele>208.26</ele>
        <time>2023-01-06T13:02:12Z</time>
      </trkpt>
      <trkpt lat="44.36046" lon="1.5152">
        <ele>206.82</ele>
        <time>2023-01-06T13:02:28Z</time>
      </trkpt>
      <trkpt lat="44.36028" lon="1.51499">
        <ele>208.26</ele>
        <time>2023-01-06T13:02:46Z</time>
      </trkpt>
      <trkpt lat="44.36016" lon="1.51484">
        <ele>206.82</ele>
        <time>2023-01-06T13:03:00Z</time>
      </trkpt>
      <trkpt lat="44.36002" lon="1.51465">
        <ele>208.26</ele>
        <time>2023-01-06T13:03:15Z</time>
      </trkpt>
      <trkpt lat="44.35985" lon="1.51446">
        <ele>210.67</ele>
        <time>2023-01-06T13:03:32Z</time>
      </trkpt>
      <trkpt lat="44.35967" lon="1.51422">
        <ele>210.67</ele>
        <time>2023-01-06T13:03:51Z</time>
      </trkpt>
      <trkpt lat="44.3596" lon="1.51411">
        <ele>210.19</ele>
        <time>2023-01-06T13:04:00Z</time>
      </trkpt>
      <trkpt lat="44.35949" lon="1.51393">
        <ele>210.19</ele>
        <time>2023-01-06T13:04:15Z</time>
      </trkpt>
      <trkpt lat="44.35934" lon="1.51375">
        <ele>210.19</ele>
        <time>2023-01-06T13:04:31Z</time>
      </trkpt>
      <trkpt lat="44.3592" lon="1.51363">
        <ele>211.63</ele>
        <time>2023-01-06T13:04:45Z</time>
      </trkpt>
      <trkpt lat="44.35901" lon="1.51357">
        <ele>211.15</ele>
        <time>2023-01-06T13:05:00Z</time>
      </trkpt>
      <trkpt lat="44.35878" lon="1.51356">
        <ele>211.15</ele>
        <time>2023-01-06T13:05:20Z</time>
      </trkpt>
      <trkpt lat="44.3585" lon="1.51355">
        <ele>211.15</ele>
        <time>2023-01-06T13:05:41Z</time>
      </trkpt>
      <trkpt lat="44.35821" lon="1.51355">
        <ele>209.7</ele>
        <time>2023-01-06T13:06:03Z</time>
      </trkpt>
      <trkpt lat="44.35799" lon="1.51352">
        <ele>208.26</ele>
        <time>2023-01-06T13:06:22Z</time>
      </trkpt>
      <trkpt lat="44.35773" lon="1.51345">
        <ele>209.22</ele>
        <time>2023-01-06T13:06:43Z</time>
      </trkpt>
      <trkpt lat="44.3575" lon="1.51339">
        <ele>211.63</ele>
        <time>2023-01-06T13:07:01Z</time>
      </trkpt>
      <trkpt lat="44.35724" lon="1.51333">
        <ele>210.67</ele>
        <time>2023-01-06T13:07:21Z</time>
      </trkpt>
      <trkpt lat="44.357" lon="1.51329">
        <ele>213.55</ele>
        <time>2023-01-06T13:07:39Z</time>
      </trkpt>
      <trkpt lat="44.35679" lon="1.5131">
        <ele>215.47</ele>
        <time>2023-01-06T13:07:59Z</time>
      </trkpt>
      <trkpt lat="44.3566" lon="1.51293">
        <ele>217.88</ele>
        <time>2023-01-06T13:08:16Z</time>
      </trkpt>
      <trkpt lat="44.35655" lon="1.51289">
        <ele>218.36</ele>
        <time>2023-01-06T13:08:20Z</time>
      </trkpt>
      <trkpt lat="44.35635" lon="1.51277">
        <ele>216.43</ele>
        <time>2023-01-06T13:08:39Z</time>
      </trkpt>
      <trkpt lat="44.35629" lon="1.51273">
        <ele>216.43</ele>
        <time>2023-01-06T13:08:54Z</time>
      </trkpt>
      <trkpt lat="44.35627" lon="1.51273">
        <ele>220.76</ele>
        <time>2023-01-06T13:09:16Z</time>
      </trkpt>
      <trkpt lat="44.35625" lon="1.51278">
        <ele>221.72</ele>
        <time>2023-01-06T13:09:38Z</time>
      </trkpt>
      <trkpt lat="44.35614" lon="1.51273">
        <ele>223.64</ele>
        <time>2023-01-06T13:09:57Z</time>
      </trkpt>
      <trkpt lat="44.35591" lon="1.51268">
        <ele>224.12</ele>
        <time>2023-01-06T13:10:16Z</time>
      </trkpt>
      <trkpt lat="44.35568" lon="1.51266">
        <ele>221.72</ele>
        <time>2023-01-06T13:10:36Z</time>
      </trkpt>
      <trkpt lat="44.3555" lon="1.51267">
        <ele>220.76</ele>
        <time>2023-01-06T13:10:50Z</time>
      </trkpt>
      <trkpt lat="44.35528" lon="1.51268">
        <ele>223.16</ele>
        <time>2023-01-06T13:11:08Z</time>
      </trkpt>
      <trkpt lat="44.35519" lon="1.51268">
        <ele>222.68</ele>
        <time>2023-01-06T13:11:15Z</time>
      </trkpt>
      <trkpt lat="44.35503" lon="1.51269">
        <ele>220.28</ele>
        <time>2023-01-06T13:11:27Z</time>
      </trkpt>
      <trkpt lat="44.35483" lon="1.51279">
        <ele>218.84</ele>
        <time>2023-01-06T13:11:45Z</time>
      </trkpt>
      <trkpt lat="44.35477" lon="1.51279">
        <ele>218.36</ele>
        <time>2023-01-06T13:12:01Z</time>
      </trkpt>
      <trkpt lat="44.35469" lon="1.51262">
        <ele>222.68</ele>
        <time>2023-01-06T13:12:19Z</time>
      </trkpt>
      <trkpt lat="44.35467" lon="1.51256">
        <ele>223.16</ele>
        <time>2023-01-06T13:12:23Z</time>
      </trkpt>
      <trkpt lat="44.35454" lon="1.5125">
        <ele>223.64</ele>
        <time>2023-01-06T13:12:38Z</time>
      </trkpt>
      <trkpt lat="44.35439" lon="1.51251">
        <ele>222.2</ele>
        <time>2023-01-06T13:12:55Z</time>
      </trkpt>
      <trkpt lat="44.3543" lon="1.51249">
        <ele>225.09</ele>
        <time>2023-01-06T13:13:12Z</time>
      </trkpt>
      <trkpt lat="44.35425" lon="1.51228">
        <ele>230.37</ele>
        <time>2023-01-06T13:13:29Z</time>
      </trkpt>
      <trkpt lat="44.35421" lon="1.51208">
        <ele>234.22</ele>
        <time>2023-01-06T13:13:44Z</time>
      </trkpt>
      <trkpt lat="44.35421" lon="1.51197">
        <ele>235.18</ele>
        <time>2023-01-06T13:13:54Z</time>
      </trkpt>
      <trkpt lat="44.35419" lon="1.51181">
        <ele>238.54</ele>
        <time>2023-01-06T13:14:10Z</time>
      </trkpt>
      <trkpt lat="44.35417" lon="1.5117">
        <ele>240.47</ele>
        <time>2023-01-06T13:14:27Z</time>
      </trkpt>
      <trkpt lat="44.35415" lon="1.51152">
        <ele>240.47</ele>
        <time>2023-01-06T13:14:44Z</time>
      </trkpt>
      <trkpt lat="44.35413" lon="1.51139">
        <ele>240.95</ele>
        <time>2023-01-06T13:14:58Z</time>
      </trkpt>
      <trkpt lat="44.35412" lon="1.5113">
        <ele>243.35</ele>
        <time>2023-01-06T13:15:15Z</time>
      </trkpt>
      <trkpt lat="44.35409" lon="1.5112">
        <ele>244.31</ele>
        <time>2023-01-06T13:15:36Z</time>
      </trkpt>
      <trkpt lat="44.35407" lon="1.51109">
        <ele>246.72</ele>
        <time>2023-01-06T13:15:52Z</time>
      </trkpt>
      <trkpt lat="44.35404" lon="1.51093">
        <ele>248.16</ele>
        <time>2023-01-06T13:16:07Z</time>
      </trkpt>
      <trkpt lat="44.35407" lon="1.5109">
        <ele>247.2</ele>
        <time>2023-01-06T13:16:21Z</time>
      </trkpt>
      <trkpt lat="44.35406" lon="1.51079">
        <ele>246.23</ele>
        <time>2023-01-06T13:16:34Z</time>
      </trkpt>
      <trkpt lat="44.35413" lon="1.51061">
        <ele>246.72</ele>
        <time>2023-01-06T13:16:50Z</time>
      </trkpt>
      <trkpt lat="44.35422" lon="1.51053">
        <ele>247.2</ele>
        <time>2023-01-06T13:17:05Z</time>
      </trkpt>
      <trkpt lat="44.35433" lon="1.5105">
        <ele>248.16</ele>
        <time>2023-01-06T13:17:23Z</time>
      </trkpt>
      <trkpt lat="44.35435" lon="1.51046">
        <ele>250.08</ele>
        <time>2023-01-06T13:17:42Z</time>
      </trkpt>
      <trkpt lat="44.35435" lon="1.51044">
        <ele>252.48</ele>
        <time>2023-01-06T13:18:06Z</time>
      </trkpt>
      <trkpt lat="44.35425" lon="1.51051">
        <ele>250.56</ele>
        <time>2023-01-06T13:18:20Z</time>
      </trkpt>
      <trkpt lat="44.35421" lon="1.51051">
        <ele>249.6</ele>
        <time>2023-01-06T13:18:23Z</time>
      </trkpt>
      <trkpt lat="44.35416" lon="1.5103">
        <ele>251.04</ele>
        <time>2023-01-06T13:18:40Z</time>
      </trkpt>
      <trkpt lat="44.35414" lon="1.51015">
        <ele>250.56</ele>
        <time>2023-01-06T13:18:53Z</time>
      </trkpt>
      <trkpt lat="44.35411" lon="1.50999">
        <ele>252</ele>
        <time>2023-01-06T13:19:05Z</time>
      </trkpt>
      <trkpt lat="44.35405" lon="1.50972">
        <ele>252.96</ele>
        <time>2023-01-06T13:19:22Z</time>
      </trkpt>
      <trkpt lat="44.35401" lon="1.50947">
        <ele>252.96</ele>
        <time>2023-01-06T13:19:39Z</time>
      </trkpt>
      <trkpt lat="44.35396" lon="1.50924">
        <ele>253.93</ele>
        <time>2023-01-06T13:19:54Z</time>
      </trkpt>
      <trkpt lat="44.35389" lon="1.50896">
        <ele>254.89</ele>
        <time>2023-01-06T13:20:13Z</time>
      </trkpt>
      <trkpt lat="44.35383" lon="1.50864">
        <ele>256.81</ele>
        <time>2023-01-06T13:20:34Z</time>
      </trkpt>
      <trkpt lat="44.35378" lon="1.50836">
        <ele>257.77</ele>
        <time>2023-01-06T13:20:52Z</time>
      </trkpt>
      <trkpt lat="44.35372" lon="1.50802">
        <ele>257.29</ele>
        <time>2023-01-06T13:21:12Z</time>
      </trkpt>
      <trkpt lat="44.3536" lon="1.50785">
        <ele>256.33</ele>
        <time>2023-01-06T13:21:27Z</time>
      </trkpt>
      <trkpt lat="44.3534" lon="1.5076">
        <ele>254.89</ele>
        <time>2023-01-06T13:21:48Z</time>
      </trkpt>
      <trkpt lat="44.35323" lon="1.5074">
        <ele>256.33</ele>
        <time>2023-01-06T13:22:06Z</time>
      </trkpt>
      <trkpt lat="44.35305" lon="1.5072">
        <ele>256.81</ele>
        <time>2023-01-06T13:22:24Z</time>
      </trkpt>
      <trkpt lat="44.35292" lon="1.50701">
        <ele>257.29</ele>
        <time>2023-01-06T13:22:39Z</time>
      </trkpt>
      <trkpt lat="44.35275" lon="1.50681">
        <ele>255.37</ele>
        <time>2023-01-06T13:22:59Z</time>
      </trkpt>
      <trkpt lat="44.35255" lon="1.50663">
        <ele>252.96</ele>
        <time>2023-01-06T13:23:20Z</time>
      </trkpt>
      <trkpt lat="44.35238" lon="1.5065">
        <ele>252</ele>
        <time>2023-01-06T13:23:38Z</time>
      </trkpt>
      <trkpt lat="44.35235" lon="1.50649">
        <ele>251.52</ele>
        <time>2023-01-06T13:23:40Z</time>
      </trkpt>
      <trkpt lat="44.35211" lon="1.50644">
        <ele>249.12</ele>
        <time>2023-01-06T13:24:01Z</time>
      </trkpt>
      <trkpt lat="44.35207" lon="1.50646">
        <ele>249.12</ele>
        <time>2023-01-06T13:24:04Z</time>
      </trkpt>
      <trkpt lat="44.3519" lon="1.5066">
        <ele>250.08</ele>
        <time>2023-01-06T13:24:21Z</time>
      </trkpt>
      <trkpt lat="44.35169" lon="1.50681">
        <ele>252</ele>
        <time>2023-01-06T13:24:40Z</time>
      </trkpt>
      <trkpt lat="44.35151" lon="1.50697">
        <ele>252.96</ele>
        <time>2023-01-06T13:24:59Z</time>
      </trkpt>
      <trkpt lat="44.35131" lon="1.50715">
        <ele>254.89</ele>
        <time>2023-01-06T13:25:18Z</time>
      </trkpt>
      <trkpt lat="44.3511" lon="1.50737">
        <ele>256.33</ele>
        <time>2023-01-06T13:25:37Z</time>
      </trkpt>
      <trkpt lat="44.35089" lon="1.50757">
        <ele>256.33</ele>
        <time>2023-01-06T13:25:58Z</time>
      </trkpt>
      <trkpt lat="44.3507" lon="1.50771">
        <ele>252</ele>
        <time>2023-01-06T13:26:17Z</time>
      </trkpt>
      <trkpt lat="44.35051" lon="1.50791">
        <ele>254.41</ele>
        <time>2023-01-06T13:26:35Z</time>
      </trkpt>
      <trkpt lat="44.35031" lon="1.50809">
        <ele>254.41</ele>
        <time>2023-01-06T13:26:54Z</time>
      </trkpt>
      <trkpt lat="44.35014" lon="1.50825">
        <ele>253.44</ele>
        <time>2023-01-06T13:27:12Z</time>
      </trkpt>
      <trkpt lat="44.34994" lon="1.50842">
        <ele>255.85</ele>
        <time>2023-01-06T13:27:30Z</time>
      </trkpt>
      <trkpt lat="44.34979" lon="1.50856">
        <ele>255.37</ele>
        <time>2023-01-06T13:27:45Z</time>
      </trkpt>
      <trkpt lat="44.34963" lon="1.50872">
        <ele>257.29</ele>
        <time>2023-01-06T13:28:00Z</time>
      </trkpt>
      <trkpt lat="44.34943" lon="1.50883">
        <ele>257.29</ele>
        <time>2023-01-06T13:28:17Z</time>
      </trkpt>
      <trkpt lat="44.34928" lon="1.50873">
        <ele>256.33</ele>
        <time>2023-01-06T13:28:33Z</time>
      </trkpt>
      <trkpt lat="44.34908" lon="1.50855">
        <ele>254.41</ele>
        <time>2023-01-06T13:28:50Z</time>
      </trkpt>
      <trkpt lat="44.34887" lon="1.50834">
        <ele>257.29</ele>
        <time>2023-01-06T13:29:11Z</time>
      </trkpt>
      <trkpt lat="44.34867" lon="1.50813">
        <ele>255.85</ele>
        <time>2023-01-06T13:29:29Z</time>
      </trkpt>
      <trkpt lat="44.34852" lon="1.50797">
        <ele>253.93</ele>
        <time>2023-01-06T13:29:46Z</time>
      </trkpt>
      <trkpt lat="44.34836" lon="1.5078">
        <ele>255.37</ele>
        <time>2023-01-06T13:30:02Z</time>
      </trkpt>
      <trkpt lat="44.3482" lon="1.50765">
        <ele>257.77</ele>
        <time>2023-01-06T13:30:16Z</time>
      </trkpt>
      <trkpt lat="44.34802" lon="1.50748">
        <ele>257.29</ele>
        <time>2023-01-06T13:30:33Z</time>
      </trkpt>
      <trkpt lat="44.34781" lon="1.50727">
        <ele>263.54</ele>
        <time>2023-01-06T13:30:51Z</time>
      </trkpt>
      <trkpt lat="44.34765" lon="1.50712">
        <ele>263.06</ele>
        <time>2023-01-06T13:31:07Z</time>
      </trkpt>
      <trkpt lat="44.34749" lon="1.50697">
        <ele>262.1</ele>
        <time>2023-01-06T13:31:23Z</time>
      </trkpt>
      <trkpt lat="44.34735" lon="1.5068">
        <ele>262.58</ele>
        <time>2023-01-06T13:31:40Z</time>
      </trkpt>
      <trkpt lat="44.34732" lon="1.50676">
        <ele>260.65</ele>
        <time>2023-01-06T13:31:51Z</time>
      </trkpt>
      <trkpt lat="44.34731" lon="1.50676">
        <ele>260.17</ele>
        <time>2023-01-06T13:32:03Z</time>
      </trkpt>
      <trkpt lat="44.3473" lon="1.50676">
        <ele>261.14</ele>
        <time>2023-01-06T13:32:15Z</time>
      </trkpt>
      <trkpt lat="44.3473" lon="1.50676">
        <ele>261.62</ele>
        <time>2023-01-06T13:32:30Z</time>
      </trkpt>
      <trkpt lat="44.34729" lon="1.50671">
        <ele>263.06</ele>
        <time>2023-01-06T13:32:45Z</time>
      </trkpt>
      <trkpt lat="44.34727" lon="1.50669">
        <ele>263.54</ele>
        <time>2023-01-06T13:32:58Z</time>
      </trkpt>
      <trkpt lat="44.34729" lon="1.5067">
        <ele>262.58</ele>
        <time>2023-01-06T13:33:03Z</time>
      </trkpt>
      <trkpt lat="44.34735" lon="1.50657">
        <ele>260.65</ele>
        <time>2023-01-06T13:33:16Z</time>
      </trkpt>
      <trkpt lat="44.34735" lon="1.50667">
        <ele>258.73</ele>
        <time>2023-01-06T13:33:39Z</time>
      </trkpt>
      <trkpt lat="44.34742" lon="1.5066">
        <ele>261.14</ele>
        <time>2023-01-06T13:34:05Z</time>
      </trkpt>
      <trkpt lat="44.34737" lon="1.5067">
        <ele>259.21</ele>
        <time>2023-01-06T13:34:20Z</time>
      </trkpt>
      <trkpt lat="44.34736" lon="1.50677">
        <ele>257.29</ele>
        <time>2023-01-06T13:34:34Z</time>
      </trkpt>
      <trkpt lat="44.34734" lon="1.5068">
        <ele>258.25</ele>
        <time>2023-01-06T13:34:56Z</time>
      </trkpt>
      <trkpt lat="44.34734" lon="1.50684">
        <ele>257.29</ele>
        <time>2023-01-06T13:35:26Z</time>
      </trkpt>
      <trkpt lat="44.34736" lon="1.50683">
        <ele>259.21</ele>
        <time>2023-01-06T13:35:51Z</time>
      </trkpt>
      <trkpt lat="44.34737" lon="1.50685">
        <ele>261.62</ele>
        <time>2023-01-06T13:36:22Z</time>
      </trkpt>
      <trkpt lat="44.34736" lon="1.50684">
        <ele>262.58</ele>
        <time>2023-01-06T13:36:59Z</time>
      </trkpt>
      <trkpt lat="44.34735" lon="1.50681">
        <ele>262.58</ele>
        <time>2023-01-06T13:37:22Z</time>
      </trkpt>
      <trkpt lat="44.34727" lon="1.5069">
        <ele>261.62</ele>
        <time>2023-01-06T13:37:41Z</time>
      </trkpt>
      <trkpt lat="44.34721" lon="1.50715">
        <ele>258.73</ele>
        <time>2023-01-06T13:38:00Z</time>
      </trkpt>
      <trkpt lat="44.34716" lon="1.50734">
        <ele>257.77</ele>
        <time>2023-01-06T13:38:16Z</time>
      </trkpt>
      <trkpt lat="44.34711" lon="1.50754">
        <ele>256.33</ele>
        <time>2023-01-06T13:38:28Z</time>
      </trkpt>
      <trkpt lat="44.34702" lon="1.50784">
        <ele>257.29</ele>
        <time>2023-01-06T13:38:48Z</time>
      </trkpt>
      <trkpt lat="44.34696" lon="1.50813">
        <ele>255.37</ele>
        <time>2023-01-06T13:39:06Z</time>
      </trkpt>
      <trkpt lat="44.34692" lon="1.50838">
        <ele>253.44</ele>
        <time>2023-01-06T13:39:21Z</time>
      </trkpt>
      <trkpt lat="44.34687" lon="1.50859">
        <ele>250.56</ele>
        <time>2023-01-06T13:39:37Z</time>
      </trkpt>
      <trkpt lat="44.34674" lon="1.50889">
        <ele>256.81</ele>
        <time>2023-01-06T13:39:56Z</time>
      </trkpt>
      <trkpt lat="44.34662" lon="1.50913">
        <ele>255.85</ele>
        <time>2023-01-06T13:40:15Z</time>
      </trkpt>
      <trkpt lat="44.3465" lon="1.50935">
        <ele>255.37</ele>
        <time>2023-01-06T13:40:31Z</time>
      </trkpt>
      <trkpt lat="44.34643" lon="1.50946">
        <ele>256.33</ele>
        <time>2023-01-06T13:40:38Z</time>
      </trkpt>
      <trkpt lat="44.34628" lon="1.50975">
        <ele>256.81</ele>
        <time>2023-01-06T13:40:57Z</time>
      </trkpt>
      <trkpt lat="44.34614" lon="1.50998">
        <ele>257.29</ele>
        <time>2023-01-06T13:41:14Z</time>
      </trkpt>
      <trkpt lat="44.34603" lon="1.51024">
        <ele>257.77</ele>
        <time>2023-01-06T13:41:30Z</time>
      </trkpt>
      <trkpt lat="44.34592" lon="1.51049">
        <ele>257.29</ele>
        <time>2023-01-06T13:41:48Z</time>
      </trkpt>
      <trkpt lat="44.34582" lon="1.51069">
        <ele>255.85</ele>
        <time>2023-01-06T13:42:04Z</time>
      </trkpt>
      <trkpt lat="44.34576" lon="1.51088">
        <ele>252.96</ele>
        <time>2023-01-06T13:42:18Z</time>
      </trkpt>
      <trkpt lat="44.34562" lon="1.51115">
        <ele>252.48</ele>
        <time>2023-01-06T13:42:37Z</time>
      </trkpt>
      <trkpt lat="44.34548" lon="1.51138">
        <ele>252</ele>
        <time>2023-01-06T13:42:54Z</time>
      </trkpt>
      <trkpt lat="44.34542" lon="1.51143">
        <ele>252</ele>
        <time>2023-01-06T13:43:00Z</time>
      </trkpt>
      <trkpt lat="44.34537" lon="1.51146">
        <ele>252</ele>
        <time>2023-01-06T13:43:04Z</time>
      </trkpt>
      <trkpt lat="44.34523" lon="1.51174">
        <ele>251.52</ele>
        <time>2023-01-06T13:43:22Z</time>
      </trkpt>
      <trkpt lat="44.34517" lon="1.51191">
        <ele>250.56</ele>
        <time>2023-01-06T13:43:33Z</time>
      </trkpt>
      <trkpt lat="44.34512" lon="1.51217">
        <ele>250.08</ele>
        <time>2023-01-06T13:43:51Z</time>
      </trkpt>
      <trkpt lat="44.34512" lon="1.5122">
        <ele>250.08</ele>
        <time>2023-01-06T13:43:53Z</time>
      </trkpt>
      <trkpt lat="44.34509" lon="1.51233">
        <ele>251.04</ele>
        <time>2023-01-06T13:44:01Z</time>
      </trkpt>
      <trkpt lat="44.345" lon="1.51256">
        <ele>252.48</ele>
        <time>2023-01-06T13:44:17Z</time>
      </trkpt>
      <trkpt lat="44.3449" lon="1.51282">
        <ele>253.93</ele>
        <time>2023-01-06T13:44:34Z</time>
      </trkpt>
      <trkpt lat="44.34482" lon="1.51307">
        <ele>253.93</ele>
        <time>2023-01-06T13:44:51Z</time>
      </trkpt>
      <trkpt lat="44.3447" lon="1.51333">
        <ele>253.44</ele>
        <time>2023-01-06T13:45:08Z</time>
      </trkpt>
      <trkpt lat="44.34462" lon="1.51354">
        <ele>253.93</ele>
        <time>2023-01-06T13:45:23Z</time>
      </trkpt>
      <trkpt lat="44.34452" lon="1.5138">
        <ele>255.37</ele>
        <time>2023-01-06T13:45:40Z</time>
      </trkpt>
      <trkpt lat="44.3444" lon="1.51413">
        <ele>257.29</ele>
        <time>2023-01-06T13:46:01Z</time>
      </trkpt>
      <trkpt lat="44.34428" lon="1.51444">
        <ele>256.81</ele>
        <time>2023-01-06T13:46:23Z</time>
      </trkpt>
      <trkpt lat="44.34419" lon="1.51474">
        <ele>255.37</ele>
        <time>2023-01-06T13:46:42Z</time>
      </trkpt>
      <trkpt lat="44.34411" lon="1.51504">
        <ele>253.44</ele>
        <time>2023-01-06T13:47:01Z</time>
      </trkpt>
      <trkpt lat="44.34406" lon="1.51542">
        <ele>252.48</ele>
        <time>2023-01-06T13:47:23Z</time>
      </trkpt>
      <trkpt lat="44.34403" lon="1.51574">
        <ele>254.89</ele>
        <time>2023-01-06T13:47:40Z</time>
      </trkpt>
      <trkpt lat="44.34402" lon="1.51586">
        <ele>255.85</ele>
        <time>2023-01-06T13:47:48Z</time>
      </trkpt>
      <trkpt lat="44.34401" lon="1.51593">
        <ele>256.33</ele>
        <time>2023-01-06T13:47:52Z</time>
      </trkpt>
      <trkpt lat="44.34397" lon="1.51627">
        <ele>253.44</ele>
        <time>2023-01-06T13:48:15Z</time>
      </trkpt>
      <trkpt lat="44.34393" lon="1.51648">
        <ele>254.89</ele>
        <time>2023-01-06T13:48:28Z</time>
      </trkpt>
      <trkpt lat="44.34388" lon="1.51678">
        <ele>257.29</ele>
        <time>2023-01-06T13:48:47Z</time>
      </trkpt>
      <trkpt lat="44.34386" lon="1.51685">
        <ele>260.17</ele>
        <time>2023-01-06T13:49:16Z</time>
      </trkpt>
      <trkpt lat="44.34383" lon="1.5169">
        <ele>261.14</ele>
        <time>2023-01-06T13:49:32Z</time>
      </trkpt>
      <trkpt lat="44.34378" lon="1.51719">
        <ele>260.65</ele>
        <time>2023-01-06T13:49:51Z</time>
      </trkpt>
      <trkpt lat="44.34374" lon="1.51746">
        <ele>258.73</ele>
        <time>2023-01-06T13:50:07Z</time>
      </trkpt>
      <trkpt lat="44.34369" lon="1.51776">
        <ele>256.33</ele>
        <time>2023-01-06T13:50:25Z</time>
      </trkpt>
      <trkpt lat="44.34363" lon="1.51809">
        <ele>250.08</ele>
        <time>2023-01-06T13:50:44Z</time>
      </trkpt>
      <trkpt lat="44.34357" lon="1.51834">
        <ele>246.23</ele>
        <time>2023-01-06T13:50:58Z</time>
      </trkpt>
      <trkpt lat="44.34352" lon="1.51859">
        <ele>246.72</ele>
        <time>2023-01-06T13:51:14Z</time>
      </trkpt>
      <trkpt lat="44.34349" lon="1.51891">
        <ele>248.16</ele>
        <time>2023-01-06T13:51:33Z</time>
      </trkpt>
      <trkpt lat="44.34343" lon="1.5192">
        <ele>245.75</ele>
        <time>2023-01-06T13:51:50Z</time>
      </trkpt>
      <trkpt lat="44.34335" lon="1.51946">
        <ele>247.68</ele>
        <time>2023-01-06T13:52:09Z</time>
      </trkpt>
      <trkpt lat="44.3433" lon="1.51971">
        <ele>246.72</ele>
        <time>2023-01-06T13:52:25Z</time>
      </trkpt>
      <trkpt lat="44.34323" lon="1.51999">
        <ele>244.31</ele>
        <time>2023-01-06T13:52:43Z</time>
      </trkpt>
      <trkpt lat="44.34314" lon="1.52025">
        <ele>241.91</ele>
        <time>2023-01-06T13:53:02Z</time>
      </trkpt>
      <trkpt lat="44.34301" lon="1.52051">
        <ele>241.91</ele>
        <time>2023-01-06T13:53:21Z</time>
      </trkpt>
      <trkpt lat="44.34299" lon="1.52056">
        <ele>241.43</ele>
        <time>2023-01-06T13:53:26Z</time>
      </trkpt>
      <trkpt lat="44.34293" lon="1.52066">
        <ele>239.51</ele>
        <time>2023-01-06T13:53:35Z</time>
      </trkpt>
      <trkpt lat="44.34284" lon="1.5209">
        <ele>239.51</ele>
        <time>2023-01-06T13:53:53Z</time>
      </trkpt>
      <trkpt lat="44.34274" lon="1.52113">
        <ele>238.54</ele>
        <time>2023-01-06T13:54:10Z</time>
      </trkpt>
      <trkpt lat="44.34264" lon="1.52139">
        <ele>238.54</ele>
        <time>2023-01-06T13:54:28Z</time>
      </trkpt>
      <trkpt lat="44.34259" lon="1.52169">
        <ele>239.99</ele>
        <time>2023-01-06T13:54:47Z</time>
      </trkpt>
      <trkpt lat="44.34263" lon="1.52203">
        <ele>239.51</ele>
        <time>2023-01-06T13:55:06Z</time>
      </trkpt>
      <trkpt lat="44.34267" lon="1.52238">
        <ele>238.54</ele>
        <time>2023-01-06T13:55:28Z</time>
      </trkpt>
      <trkpt lat="44.34268" lon="1.52254">
        <ele>239.02</ele>
        <time>2023-01-06T13:55:38Z</time>
      </trkpt>
      <trkpt lat="44.34269" lon="1.52261">
        <ele>239.51</ele>
        <time>2023-01-06T13:55:42Z</time>
      </trkpt>
      <trkpt lat="44.34268" lon="1.52285">
        <ele>240.95</ele>
        <time>2023-01-06T13:55:58Z</time>
      </trkpt>
      <trkpt lat="44.34258" lon="1.52317">
        <ele>242.87</ele>
        <time>2023-01-06T13:56:18Z</time>
      </trkpt>
      <trkpt lat="44.34246" lon="1.52347">
        <ele>243.83</ele>
        <time>2023-01-06T13:56:39Z</time>
      </trkpt>
      <trkpt lat="44.34236" lon="1.52371">
        <ele>242.87</ele>
        <time>2023-01-06T13:56:57Z</time>
      </trkpt>
      <trkpt lat="44.34232" lon="1.52384">
        <ele>244.31</ele>
        <time>2023-01-06T13:57:09Z</time>
      </trkpt>
      <trkpt lat="44.34221" lon="1.52407">
        <ele>245.75</ele>
        <time>2023-01-06T13:57:26Z</time>
      </trkpt>
      <trkpt lat="44.34209" lon="1.52432">
        <ele>245.75</ele>
        <time>2023-01-06T13:57:46Z</time>
      </trkpt>
      <trkpt lat="44.342" lon="1.52453">
        <ele>246.72</ele>
        <time>2023-01-06T13:58:03Z</time>
      </trkpt>
      <trkpt lat="44.3419" lon="1.52473">
        <ele>249.12</ele>
        <time>2023-01-06T13:58:21Z</time>
      </trkpt>
      <trkpt lat="44.3418" lon="1.52494">
        <ele>249.6</ele>
        <time>2023-01-06T13:58:39Z</time>
      </trkpt>
      <trkpt lat="44.3417" lon="1.52515">
        <ele>250.56</ele>
        <time>2023-01-06T13:58:57Z</time>
      </trkpt>
      <trkpt lat="44.34159" lon="1.52538">
        <ele>251.04</ele>
        <time>2023-01-06T13:59:15Z</time>
      </trkpt>
      <trkpt lat="44.34151" lon="1.52559">
        <ele>251.52</ele>
        <time>2023-01-06T13:59:31Z</time>
      </trkpt>
      <trkpt lat="44.34139" lon="1.52588">
        <ele>256.33</ele>
        <time>2023-01-06T13:59:52Z</time>
      </trkpt>
      <trkpt lat="44.34131" lon="1.52606">
        <ele>257.29</ele>
        <time>2023-01-06T14:00:06Z</time>
      </trkpt>
      <trkpt lat="44.34115" lon="1.52636">
        <ele>258.73</ele>
        <time>2023-01-06T14:00:28Z</time>
      </trkpt>
      <trkpt lat="44.34105" lon="1.52654">
        <ele>263.06</ele>
        <time>2023-01-06T14:00:43Z</time>
      </trkpt>
      <trkpt lat="44.34098" lon="1.52667">
        <ele>263.06</ele>
        <time>2023-01-06T14:00:55Z</time>
      </trkpt>
      <trkpt lat="44.34091" lon="1.52682">
        <ele>263.54</ele>
        <time>2023-01-06T14:01:07Z</time>
      </trkpt>
      <trkpt lat="44.34088" lon="1.52691">
        <ele>263.06</ele>
        <time>2023-01-06T14:01:13Z</time>
      </trkpt>
      <trkpt lat="44.34078" lon="1.5271">
        <ele>263.06</ele>
        <time>2023-01-06T14:01:28Z</time>
      </trkpt>
      <trkpt lat="44.34069" lon="1.52725">
        <ele>264.5</ele>
        <time>2023-01-06T14:01:40Z</time>
      </trkpt>
      <trkpt lat="44.34059" lon="1.52744">
        <ele>266.9</ele>
        <time>2023-01-06T14:01:55Z</time>
      </trkpt>
      <trkpt lat="44.34049" lon="1.52761">
        <ele>265.46</ele>
        <time>2023-01-06T14:02:09Z</time>
      </trkpt>
      <trkpt lat="44.34046" lon="1.52767">
        <ele>265.94</ele>
        <time>2023-01-06T14:02:14Z</time>
      </trkpt>
      <trkpt lat="44.34034" lon="1.52791">
        <ele>266.9</ele>
        <time>2023-01-06T14:02:32Z</time>
      </trkpt>
      <trkpt lat="44.34019" lon="1.52816">
        <ele>266.42</ele>
        <time>2023-01-06T14:02:50Z</time>
      </trkpt>
      <trkpt lat="44.34006" lon="1.52834">
        <ele>266.9</ele>
        <time>2023-01-06T14:03:05Z</time>
      </trkpt>
      <trkpt lat="44.33996" lon="1.52854">
        <ele>267.86</ele>
        <time>2023-01-06T14:03:22Z</time>
      </trkpt>
      <trkpt lat="44.33991" lon="1.52862">
        <ele>267.38</ele>
        <time>2023-01-06T14:03:29Z</time>
      </trkpt>
      <trkpt lat="44.33983" lon="1.52878">
        <ele>266.42</ele>
        <time>2023-01-06T14:03:41Z</time>
      </trkpt>
      <trkpt lat="44.33973" lon="1.52899">
        <ele>266.42</ele>
        <time>2023-01-06T14:03:55Z</time>
      </trkpt>
      <trkpt lat="44.33963" lon="1.52919">
        <ele>265.94</ele>
        <time>2023-01-06T14:04:11Z</time>
      </trkpt>
      <trkpt lat="44.33955" lon="1.5294">
        <ele>266.9</ele>
        <time>2023-01-06T14:04:25Z</time>
      </trkpt>
      <trkpt lat="44.33944" lon="1.52964">
        <ele>265.94</ele>
        <time>2023-01-06T14:04:42Z</time>
      </trkpt>
      <trkpt lat="44.33934" lon="1.52991">
        <ele>265.94</ele>
        <time>2023-01-06T14:05:01Z</time>
      </trkpt>
      <trkpt lat="44.33928" lon="1.53019">
        <ele>265.46</ele>
        <time>2023-01-06T14:05:17Z</time>
      </trkpt>
      <trkpt lat="44.33925" lon="1.53029">
        <ele>265.94</ele>
        <time>2023-01-06T14:05:23Z</time>
      </trkpt>
      <trkpt lat="44.33924" lon="1.53047">
        <ele>265.94</ele>
        <time>2023-01-06T14:05:34Z</time>
      </trkpt>
      <trkpt lat="44.33924" lon="1.53056">
        <ele>264.02</ele>
        <time>2023-01-06T14:05:43Z</time>
      </trkpt>
      <trkpt lat="44.33938" lon="1.53071">
        <ele>264.02</ele>
        <time>2023-01-06T14:05:58Z</time>
      </trkpt>
      <trkpt lat="44.33957" lon="1.53093">
        <ele>261.62</ele>
        <time>2023-01-06T14:06:19Z</time>
      </trkpt>
      <trkpt lat="44.33969" lon="1.5311">
        <ele>258.73</ele>
        <time>2023-01-06T14:06:35Z</time>
      </trkpt>
      <trkpt lat="44.33984" lon="1.53129">
        <ele>257.29</ele>
        <time>2023-01-06T14:06:52Z</time>
      </trkpt>
      <trkpt lat="44.34002" lon="1.53155">
        <ele>256.81</ele>
        <time>2023-01-06T14:07:14Z</time>
      </trkpt>
      <trkpt lat="44.34017" lon="1.53175">
        <ele>254.41</ele>
        <time>2023-01-06T14:07:32Z</time>
      </trkpt>
      <trkpt lat="44.3403" lon="1.53188">
        <ele>255.85</ele>
        <time>2023-01-06T14:07:44Z</time>
      </trkpt>
      <trkpt lat="44.34052" lon="1.53211">
        <ele>256.33</ele>
        <time>2023-01-06T14:08:06Z</time>
      </trkpt>
      <trkpt lat="44.34061" lon="1.53218">
        <ele>257.29</ele>
        <time>2023-01-06T14:08:19Z</time>
      </trkpt>
      <trkpt lat="44.34073" lon="1.53236">
        <ele>260.17</ele>
        <time>2023-01-06T14:08:35Z</time>
      </trkpt>
      <trkpt lat="44.34085" lon="1.53252">
        <ele>263.06</ele>
        <time>2023-01-06T14:08:49Z</time>
      </trkpt>
      <trkpt lat="44.34091" lon="1.53258">
        <ele>263.54</ele>
        <time>2023-01-06T14:08:55Z</time>
      </trkpt>
      <trkpt lat="44.34099" lon="1.53267">
        <ele>264.5</ele>
        <time>2023-01-06T14:09:08Z</time>
      </trkpt>
      <trkpt lat="44.34112" lon="1.53279">
        <ele>264.98</ele>
        <time>2023-01-06T14:09:23Z</time>
      </trkpt>
      <trkpt lat="44.34113" lon="1.53279">
        <ele>264.98</ele>
        <time>2023-01-06T14:09:24Z</time>
      </trkpt>
      <trkpt lat="44.3412" lon="1.53282">
        <ele>266.42</ele>
        <time>2023-01-06T14:09:30Z</time>
      </trkpt>
      <trkpt lat="44.34135" lon="1.53296">
        <ele>268.83</ele>
        <time>2023-01-06T14:09:48Z</time>
      </trkpt>
      <trkpt lat="44.34155" lon="1.5331">
        <ele>268.83</ele>
        <time>2023-01-06T14:10:03Z</time>
      </trkpt>
      <trkpt lat="44.34169" lon="1.53318">
        <ele>266.42</ele>
        <time>2023-01-06T14:10:18Z</time>
      </trkpt>
      <trkpt lat="44.34188" lon="1.53327">
        <ele>269.31</ele>
        <time>2023-01-06T14:10:33Z</time>
      </trkpt>
      <trkpt lat="44.34203" lon="1.53332">
        <ele>267.86</ele>
        <time>2023-01-06T14:10:47Z</time>
      </trkpt>
      <trkpt lat="44.34219" lon="1.53341">
        <ele>264.98</ele>
        <time>2023-01-06T14:11:00Z</time>
      </trkpt>
      <trkpt lat="44.3423" lon="1.53353">
        <ele>266.42</ele>
        <time>2023-01-06T14:11:13Z</time>
      </trkpt>
      <trkpt lat="44.34247" lon="1.53369">
        <ele>264.02</ele>
        <time>2023-01-06T14:11:29Z</time>
      </trkpt>
      <trkpt lat="44.34269" lon="1.53387">
        <ele>264.02</ele>
        <time>2023-01-06T14:11:49Z</time>
      </trkpt>
      <trkpt lat="44.34287" lon="1.534">
        <ele>262.1</ele>
        <time>2023-01-06T14:12:07Z</time>
      </trkpt>
      <trkpt lat="44.34308" lon="1.53416">
        <ele>260.65</ele>
        <time>2023-01-06T14:12:28Z</time>
      </trkpt>
      <trkpt lat="44.34328" lon="1.53434">
        <ele>261.62</ele>
        <time>2023-01-06T14:12:47Z</time>
      </trkpt>
      <trkpt lat="44.34341" lon="1.53449">
        <ele>260.65</ele>
        <time>2023-01-06T14:13:04Z</time>
      </trkpt>
      <trkpt lat="44.34359" lon="1.53469">
        <ele>261.62</ele>
        <time>2023-01-06T14:13:22Z</time>
      </trkpt>
      <trkpt lat="44.34373" lon="1.53484">
        <ele>263.06</ele>
        <time>2023-01-06T14:13:37Z</time>
      </trkpt>
      <trkpt lat="44.3439" lon="1.53503">
        <ele>264.02</ele>
        <time>2023-01-06T14:13:54Z</time>
      </trkpt>
      <trkpt lat="44.34407" lon="1.5352">
        <ele>264.02</ele>
        <time>2023-01-06T14:14:12Z</time>
      </trkpt>
      <trkpt lat="44.34425" lon="1.53543">
        <ele>264.98</ele>
        <time>2023-01-06T14:14:31Z</time>
      </trkpt>
      <trkpt lat="44.34444" lon="1.5356">
        <ele>265.46</ele>
        <time>2023-01-06T14:14:48Z</time>
      </trkpt>
      <trkpt lat="44.34462" lon="1.53581">
        <ele>264.98</ele>
        <time>2023-01-06T14:15:08Z</time>
      </trkpt>
      <trkpt lat="44.34477" lon="1.53595">
        <ele>263.06</ele>
        <time>2023-01-06T14:15:24Z</time>
      </trkpt>
      <trkpt lat="44.34491" lon="1.53613">
        <ele>263.54</ele>
        <time>2023-01-06T14:15:40Z</time>
      </trkpt>
      <trkpt lat="44.34513" lon="1.53637">
        <ele>267.38</ele>
        <time>2023-01-06T14:16:01Z</time>
      </trkpt>
      <trkpt lat="44.34531" lon="1.53658">
        <ele>267.38</ele>
        <time>2023-01-06T14:16:22Z</time>
      </trkpt>
      <trkpt lat="44.34547" lon="1.5368">
        <ele>267.86</ele>
        <time>2023-01-06T14:16:43Z</time>
      </trkpt>
      <trkpt lat="44.34564" lon="1.53704">
        <ele>265.46</ele>
        <time>2023-01-06T14:17:03Z</time>
      </trkpt>
      <trkpt lat="44.34576" lon="1.53723">
        <ele>265.94</ele>
        <time>2023-01-06T14:17:19Z</time>
      </trkpt>
      <trkpt lat="44.34585" lon="1.53745">
        <ele>263.06</ele>
        <time>2023-01-06T14:17:34Z</time>
      </trkpt>
      <trkpt lat="44.34596" lon="1.53768">
        <ele>261.62</ele>
        <time>2023-01-06T14:17:52Z</time>
      </trkpt>
      <trkpt lat="44.34614" lon="1.53792">
        <ele>261.62</ele>
        <time>2023-01-06T14:18:12Z</time>
      </trkpt>
      <trkpt lat="44.34635" lon="1.53807">
        <ele>263.54</ele>
        <time>2023-01-06T14:18:30Z</time>
      </trkpt>
      <trkpt lat="44.34652" lon="1.53819">
        <ele>262.58</ele>
        <time>2023-01-06T14:18:48Z</time>
      </trkpt>
      <trkpt lat="44.34674" lon="1.53836">
        <ele>268.83</ele>
        <time>2023-01-06T14:19:06Z</time>
      </trkpt>
      <trkpt lat="44.34694" lon="1.5385">
        <ele>271.23</ele>
        <time>2023-01-06T14:19:24Z</time>
      </trkpt>
      <trkpt lat="44.34706" lon="1.53862">
        <ele>269.31</ele>
        <time>2023-01-06T14:19:37Z</time>
      </trkpt>
      <trkpt lat="44.34723" lon="1.53875">
        <ele>269.79</ele>
        <time>2023-01-06T14:19:50Z</time>
      </trkpt>
      <trkpt lat="44.34733" lon="1.5389">
        <ele>269.79</ele>
        <time>2023-01-06T14:20:04Z</time>
      </trkpt>
      <trkpt lat="44.34733" lon="1.53891">
        <ele>269.31</ele>
        <time>2023-01-06T14:20:06Z</time>
      </trkpt>
      <trkpt lat="44.34735" lon="1.53898">
        <ele>268.35</ele>
        <time>2023-01-06T14:20:10Z</time>
      </trkpt>
      <trkpt lat="44.34724" lon="1.53917">
        <ele>269.79</ele>
        <time>2023-01-06T14:20:25Z</time>
      </trkpt>
      <trkpt lat="44.34711" lon="1.53935">
        <ele>271.23</ele>
        <time>2023-01-06T14:20:41Z</time>
      </trkpt>
      <trkpt lat="44.34715" lon="1.53941">
        <ele>271.23</ele>
        <time>2023-01-06T14:20:47Z</time>
      </trkpt>
      <trkpt lat="44.3472" lon="1.53943">
        <ele>270.27</ele>
        <time>2023-01-06T14:20:53Z</time>
      </trkpt>
      <trkpt lat="44.34734" lon="1.53938">
        <ele>269.79</ele>
        <time>2023-01-06T14:21:08Z</time>
      </trkpt>
      <trkpt lat="44.34755" lon="1.53933">
        <ele>269.79</ele>
        <time>2023-01-06T14:21:26Z</time>
      </trkpt>
      <trkpt lat="44.34778" lon="1.53932">
        <ele>268.83</ele>
        <time>2023-01-06T14:21:44Z</time>
      </trkpt>
      <trkpt lat="44.34796" lon="1.53931">
        <ele>269.31</ele>
        <time>2023-01-06T14:21:58Z</time>
      </trkpt>
      <trkpt lat="44.34822" lon="1.53934">
        <ele>274.11</ele>
        <time>2023-01-06T14:22:15Z</time>
      </trkpt>
      <trkpt lat="44.34826" lon="1.53934">
        <ele>274.59</ele>
        <time>2023-01-06T14:22:19Z</time>
      </trkpt>
      <trkpt lat="44.34838" lon="1.53934">
        <ele>272.67</ele>
        <time>2023-01-06T14:22:33Z</time>
      </trkpt>
      <trkpt lat="44.34857" lon="1.53934">
        <ele>275.07</ele>
        <time>2023-01-06T14:22:47Z</time>
      </trkpt>
      <trkpt lat="44.34859" lon="1.53934">
        <ele>275.07</ele>
        <time>2023-01-06T14:22:49Z</time>
      </trkpt>
      <trkpt lat="44.34868" lon="1.53949">
        <ele>273.15</ele>
        <time>2023-01-06T14:23:05Z</time>
      </trkpt>
      <trkpt lat="44.3488" lon="1.53967">
        <ele>273.15</ele>
        <time>2023-01-06T14:23:20Z</time>
      </trkpt>
      <trkpt lat="44.34893" lon="1.53986">
        <ele>272.67</ele>
        <time>2023-01-06T14:23:35Z</time>
      </trkpt>
      <trkpt lat="44.3491" lon="1.54008">
        <ele>273.15</ele>
        <time>2023-01-06T14:23:49Z</time>
      </trkpt>
      <trkpt lat="44.34918" lon="1.54021">
        <ele>271.23</ele>
        <time>2023-01-06T14:24:01Z</time>
      </trkpt>
      <trkpt lat="44.34921" lon="1.54029">
        <ele>271.23</ele>
        <time>2023-01-06T14:24:08Z</time>
      </trkpt>
      <trkpt lat="44.34931" lon="1.54044">
        <ele>267.86</ele>
        <time>2023-01-06T14:24:24Z</time>
      </trkpt>
      <trkpt lat="44.34943" lon="1.54064">
        <ele>265.46</ele>
        <time>2023-01-06T14:24:40Z</time>
      </trkpt>
      <trkpt lat="44.34955" lon="1.54078">
        <ele>266.9</ele>
        <time>2023-01-06T14:24:51Z</time>
      </trkpt>
      <trkpt lat="44.34968" lon="1.541">
        <ele>268.83</ele>
        <time>2023-01-06T14:25:08Z</time>
      </trkpt>
      <trkpt lat="44.34975" lon="1.5411">
        <ele>268.35</ele>
        <time>2023-01-06T14:25:17Z</time>
      </trkpt>
      <trkpt lat="44.34992" lon="1.5413">
        <ele>270.27</ele>
        <time>2023-01-06T14:25:33Z</time>
      </trkpt>
      <trkpt lat="44.35003" lon="1.54146">
        <ele>269.31</ele>
        <time>2023-01-06T14:25:44Z</time>
      </trkpt>
      <trkpt lat="44.35012" lon="1.54164">
        <ele>270.27</ele>
        <time>2023-01-06T14:25:57Z</time>
      </trkpt>
      <trkpt lat="44.3502" lon="1.54177">
        <ele>271.71</ele>
        <time>2023-01-06T14:26:10Z</time>
      </trkpt>
      <trkpt lat="44.35024" lon="1.54181">
        <ele>270.75</ele>
        <time>2023-01-06T14:26:15Z</time>
      </trkpt>
      <trkpt lat="44.35031" lon="1.54189">
        <ele>270.75</ele>
        <time>2023-01-06T14:26:21Z</time>
      </trkpt>
      <trkpt lat="44.35041" lon="1.54206">
        <ele>271.71</ele>
        <time>2023-01-06T14:26:36Z</time>
      </trkpt>
      <trkpt lat="44.35047" lon="1.54213">
        <ele>271.23</ele>
        <time>2023-01-06T14:26:43Z</time>
      </trkpt>
      <trkpt lat="44.35049" lon="1.54217">
        <ele>271.23</ele>
        <time>2023-01-06T14:26:46Z</time>
      </trkpt>
      <trkpt lat="44.35059" lon="1.54235">
        <ele>270.75</ele>
        <time>2023-01-06T14:26:58Z</time>
      </trkpt>
      <trkpt lat="44.35059" lon="1.54238">
        <ele>270.27</ele>
        <time>2023-01-06T14:27:01Z</time>
      </trkpt>
      <trkpt lat="44.3507" lon="1.54267">
        <ele>271.23</ele>
        <time>2023-01-06T14:27:20Z</time>
      </trkpt>
      <trkpt lat="44.35078" lon="1.54291">
        <ele>269.31</ele>
        <time>2023-01-06T14:27:38Z</time>
      </trkpt>
      <trkpt lat="44.35082" lon="1.54313">
        <ele>270.27</ele>
        <time>2023-01-06T14:27:54Z</time>
      </trkpt>
      <trkpt lat="44.35086" lon="1.54337">
        <ele>271.71</ele>
        <time>2023-01-06T14:28:05Z</time>
      </trkpt>
      <trkpt lat="44.35086" lon="1.54359">
        <ele>271.23</ele>
        <time>2023-01-06T14:28:18Z</time>
      </trkpt>
      <trkpt lat="44.35088" lon="1.54376">
        <ele>270.75</ele>
        <time>2023-01-06T14:28:32Z</time>
      </trkpt>
      <trkpt lat="44.35088" lon="1.54388">
        <ele>269.79</ele>
        <time>2023-01-06T14:28:46Z</time>
      </trkpt>
      <trkpt lat="44.35096" lon="1.5439">
        <ele>269.79</ele>
        <time>2023-01-06T14:29:05Z</time>
      </trkpt>
      <trkpt lat="44.35112" lon="1.54389">
        <ele>266.42</ele>
        <time>2023-01-06T14:29:21Z</time>
      </trkpt>
      <trkpt lat="44.35128" lon="1.54388">
        <ele>266.42</ele>
        <time>2023-01-06T14:29:35Z</time>
      </trkpt>
      <trkpt lat="44.35147" lon="1.54386">
        <ele>265.46</ele>
        <time>2023-01-06T14:29:51Z</time>
      </trkpt>
      <trkpt lat="44.35158" lon="1.54386">
        <ele>266.42</ele>
        <time>2023-01-06T14:30:06Z</time>
      </trkpt>
      <trkpt lat="44.35174" lon="1.54386">
        <ele>265.46</ele>
        <time>2023-01-06T14:30:20Z</time>
      </trkpt>
      <trkpt lat="44.35191" lon="1.54383">
        <ele>264.5</ele>
        <time>2023-01-06T14:30:35Z</time>
      </trkpt>
      <trkpt lat="44.35215" lon="1.54378">
        <ele>264.5</ele>
        <time>2023-01-06T14:30:53Z</time>
      </trkpt>
      <trkpt lat="44.35232" lon="1.54374">
        <ele>264.5</ele>
        <time>2023-01-06T14:31:09Z</time>
      </trkpt>
      <trkpt lat="44.35251" lon="1.54366">
        <ele>262.1</ele>
        <time>2023-01-06T14:31:25Z</time>
      </trkpt>
      <trkpt lat="44.35266" lon="1.5436">
        <ele>261.14</ele>
        <time>2023-01-06T14:31:39Z</time>
      </trkpt>
      <trkpt lat="44.35268" lon="1.54358">
        <ele>260.65</ele>
        <time>2023-01-06T14:31:42Z</time>
      </trkpt>
      <trkpt lat="44.35282" lon="1.54349">
        <ele>258.73</ele>
        <time>2023-01-06T14:31:56Z</time>
      </trkpt>
      <trkpt lat="44.35297" lon="1.54336">
        <ele>258.25</ele>
        <time>2023-01-06T14:32:12Z</time>
      </trkpt>
      <trkpt lat="44.35314" lon="1.54322">
        <ele>258.73</ele>
        <time>2023-01-06T14:32:27Z</time>
      </trkpt>
      <trkpt lat="44.35331" lon="1.54309">
        <ele>256.81</ele>
        <time>2023-01-06T14:32:43Z</time>
      </trkpt>
      <trkpt lat="44.35349" lon="1.54297">
        <ele>255.37</ele>
        <time>2023-01-06T14:33:00Z</time>
      </trkpt>
      <trkpt lat="44.35367" lon="1.54284">
        <ele>255.85</ele>
        <time>2023-01-06T14:33:16Z</time>
      </trkpt>
      <trkpt lat="44.35382" lon="1.54277">
        <ele>253.93</ele>
        <time>2023-01-06T14:33:31Z</time>
      </trkpt>
      <trkpt lat="44.35401" lon="1.54264">
        <ele>252</ele>
        <time>2023-01-06T14:33:50Z</time>
      </trkpt>
      <trkpt lat="44.35416" lon="1.5425">
        <ele>248.16</ele>
        <time>2023-01-06T14:34:08Z</time>
      </trkpt>
      <trkpt lat="44.35428" lon="1.54241">
        <ele>247.2</ele>
        <time>2023-01-06T14:34:22Z</time>
      </trkpt>
      <trkpt lat="44.35446" lon="1.54227">
        <ele>246.72</ele>
        <time>2023-01-06T14:34:39Z</time>
      </trkpt>
      <trkpt lat="44.3546" lon="1.54215">
        <ele>243.83</ele>
        <time>2023-01-06T14:34:55Z</time>
      </trkpt>
      <trkpt lat="44.35475" lon="1.542">
        <ele>243.35</ele>
        <time>2023-01-06T14:35:12Z</time>
      </trkpt>
      <trkpt lat="44.35491" lon="1.54187">
        <ele>241.43</ele>
        <time>2023-01-06T14:35:30Z</time>
      </trkpt>
      <trkpt lat="44.35506" lon="1.54176">
        <ele>239.02</ele>
        <time>2023-01-06T14:35:48Z</time>
      </trkpt>
      <trkpt lat="44.35523" lon="1.54163">
        <ele>235.66</ele>
        <time>2023-01-06T14:36:07Z</time>
      </trkpt>
      <trkpt lat="44.35539" lon="1.54148">
        <ele>237.1</ele>
        <time>2023-01-06T14:36:24Z</time>
      </trkpt>
      <trkpt lat="44.35551" lon="1.54134">
        <ele>235.18</ele>
        <time>2023-01-06T14:36:41Z</time>
      </trkpt>
      <trkpt lat="44.35562" lon="1.54113">
        <ele>234.7</ele>
        <time>2023-01-06T14:36:57Z</time>
      </trkpt>
      <trkpt lat="44.35571" lon="1.54099">
        <ele>233.26</ele>
        <time>2023-01-06T14:37:12Z</time>
      </trkpt>
      <trkpt lat="44.35582" lon="1.54082">
        <ele>230.85</ele>
        <time>2023-01-06T14:37:29Z</time>
      </trkpt>
      <trkpt lat="44.35594" lon="1.54064">
        <ele>231.81</ele>
        <time>2023-01-06T14:37:44Z</time>
      </trkpt>
      <trkpt lat="44.35606" lon="1.54049">
        <ele>231.33</ele>
        <time>2023-01-06T14:38:00Z</time>
      </trkpt>
      <trkpt lat="44.35622" lon="1.54028">
        <ele>234.7</ele>
        <time>2023-01-06T14:38:17Z</time>
      </trkpt>
      <trkpt lat="44.35634" lon="1.54014">
        <ele>235.18</ele>
        <time>2023-01-06T14:38:32Z</time>
      </trkpt>
      <trkpt lat="44.35647" lon="1.54">
        <ele>233.26</ele>
        <time>2023-01-06T14:38:47Z</time>
      </trkpt>
      <trkpt lat="44.35663" lon="1.53979">
        <ele>232.78</ele>
        <time>2023-01-06T14:39:06Z</time>
      </trkpt>
      <trkpt lat="44.35677" lon="1.5396">
        <ele>230.85</ele>
        <time>2023-01-06T14:39:26Z</time>
      </trkpt>
      <trkpt lat="44.35688" lon="1.53949">
        <ele>229.89</ele>
        <time>2023-01-06T14:39:39Z</time>
      </trkpt>
      <trkpt lat="44.35705" lon="1.53934">
        <ele>229.89</ele>
        <time>2023-01-06T14:39:56Z</time>
      </trkpt>
      <trkpt lat="44.35723" lon="1.53919">
        <ele>233.74</ele>
        <time>2023-01-06T14:40:12Z</time>
      </trkpt>
      <trkpt lat="44.35735" lon="1.53908">
        <ele>230.37</ele>
        <time>2023-01-06T14:40:28Z</time>
      </trkpt>
      <trkpt lat="44.35751" lon="1.53899">
        <ele>228.45</ele>
        <time>2023-01-06T14:40:44Z</time>
      </trkpt>
      <trkpt lat="44.35763" lon="1.53894">
        <ele>228.45</ele>
        <time>2023-01-06T14:40:56Z</time>
      </trkpt>
      <trkpt lat="44.35785" lon="1.53882">
        <ele>230.85</ele>
        <time>2023-01-06T14:41:13Z</time>
      </trkpt>
      <trkpt lat="44.35799" lon="1.53869">
        <ele>230.37</ele>
        <time>2023-01-06T14:41:29Z</time>
      </trkpt>
      <trkpt lat="44.35816" lon="1.53856">
        <ele>229.89</ele>
        <time>2023-01-06T14:41:44Z</time>
      </trkpt>
      <trkpt lat="44.35826" lon="1.53846">
        <ele>229.89</ele>
        <time>2023-01-06T14:41:55Z</time>
      </trkpt>
      <trkpt lat="44.35839" lon="1.53832">
        <ele>229.41</ele>
        <time>2023-01-06T14:42:09Z</time>
      </trkpt>
      <trkpt lat="44.35856" lon="1.53822">
        <ele>230.37</ele>
        <time>2023-01-06T14:42:25Z</time>
      </trkpt>
      <trkpt lat="44.35877" lon="1.53808">
        <ele>229.89</ele>
        <time>2023-01-06T14:42:41Z</time>
      </trkpt>
      <trkpt lat="44.35896" lon="1.538">
        <ele>228.45</ele>
        <time>2023-01-06T14:42:58Z</time>
      </trkpt>
      <trkpt lat="44.35912" lon="1.53791">
        <ele>229.41</ele>
        <time>2023-01-06T14:43:13Z</time>
      </trkpt>
      <trkpt lat="44.35927" lon="1.53783">
        <ele>228.45</ele>
        <time>2023-01-06T14:43:27Z</time>
      </trkpt>
      <trkpt lat="44.35944" lon="1.53765">
        <ele>227.49</ele>
        <time>2023-01-06T14:43:45Z</time>
      </trkpt>
      <trkpt lat="44.35955" lon="1.53751">
        <ele>224.61</ele>
        <time>2023-01-06T14:44:01Z</time>
      </trkpt>
      <trkpt lat="44.35968" lon="1.53736">
        <ele>223.16</ele>
        <time>2023-01-06T14:44:16Z</time>
      </trkpt>
      <trkpt lat="44.35979" lon="1.53722">
        <ele>220.28</ele>
        <time>2023-01-06T14:44:32Z</time>
      </trkpt>
      <trkpt lat="44.35988" lon="1.53708">
        <ele>216.43</ele>
        <time>2023-01-06T14:44:47Z</time>
      </trkpt>
      <trkpt lat="44.35992" lon="1.53693">
        <ele>213.55</ele>
        <time>2023-01-06T14:45:01Z</time>
      </trkpt>
      <trkpt lat="44.36" lon="1.53688">
        <ele>214.99</ele>
        <time>2023-01-06T14:45:13Z</time>
      </trkpt>
      <trkpt lat="44.36001" lon="1.53685">
        <ele>216.91</ele>
        <time>2023-01-06T14:45:31Z</time>
      </trkpt>
      <trkpt lat="44.36001" lon="1.53689">
        <ele>223.64</ele>
        <time>2023-01-06T14:46:09Z</time>
      </trkpt>
      <trkpt lat="44.36" lon="1.53691">
        <ele>225.57</ele>
        <time>2023-01-06T14:46:48Z</time>
      </trkpt>
      <trkpt lat="44.36001" lon="1.5369">
        <ele>225.57</ele>
        <time>2023-01-06T14:47:25Z</time>
      </trkpt>
      <trkpt lat="44.36" lon="1.53692">
        <ele>226.53</ele>
        <time>2023-01-06T14:48:03Z</time>
      </trkpt>
      <trkpt lat="44.36001" lon="1.53689">
        <ele>227.01</ele>
        <time>2023-01-06T14:48:47Z</time>
      </trkpt>
      <trkpt lat="44.36" lon="1.53688">
        <ele>223.64</ele>
        <time>2023-01-06T14:49:23Z</time>
      </trkpt>
      <trkpt lat="44.36002" lon="1.53688">
        <ele>224.12</ele>
        <time>2023-01-06T14:49:59Z</time>
      </trkpt>
      <trkpt lat="44.36002" lon="1.5369">
        <ele>223.16</ele>
        <time>2023-01-06T14:50:39Z</time>
      </trkpt>
      <trkpt lat="44.36002" lon="1.5369">
        <ele>223.16</ele>
        <time>2023-01-06T14:51:26Z</time>
      </trkpt>
      <trkpt lat="44.36003" lon="1.53689">
        <ele>224.12</ele>
        <time>2023-01-06T14:52:05Z</time>
      </trkpt>
      <trkpt lat="44.36001" lon="1.5369">
        <ele>225.09</ele>
        <time>2023-01-06T14:52:40Z</time>
      </trkpt>
      <trkpt lat="44.36002" lon="1.53691">
        <ele>225.57</ele>
        <time>2023-01-06T14:53:13Z</time>
      </trkpt>
      <trkpt lat="44.36" lon="1.5369">
        <ele>223.16</ele>
        <time>2023-01-06T14:53:46Z</time>
      </trkpt>
      <trkpt lat="44.36001" lon="1.5369">
        <ele>222.2</ele>
        <time>2023-01-06T14:54:30Z</time>
      </trkpt>
      <trkpt lat="44.35998" lon="1.53691">
        <ele>226.53</ele>
        <time>2023-01-06T14:54:43Z</time>
      </trkpt>
      <trkpt lat="44.35998" lon="1.5369">
        <ele>226.53</ele>
        <time>2023-01-06T14:54:44Z</time>
      </trkpt>
      <trkpt lat="44.35992" lon="1.53679">
        <ele>225.09</ele>
        <time>2023-01-06T14:54:58Z</time>
      </trkpt>
      <trkpt lat="44.35991" lon="1.53677">
        <ele>224.12</ele>
        <time>2023-01-06T14:55:11Z</time>
      </trkpt>
      <trkpt lat="44.35983" lon="1.5367">
        <ele>225.57</ele>
        <time>2023-01-06T14:55:25Z</time>
      </trkpt>
      <trkpt lat="44.35982" lon="1.53666">
        <ele>226.53</ele>
        <time>2023-01-06T14:55:43Z</time>
      </trkpt>
      <trkpt lat="44.35973" lon="1.53639">
        <ele>224.61</ele>
        <time>2023-01-06T14:56:02Z</time>
      </trkpt>
      <trkpt lat="44.35964" lon="1.53615">
        <ele>225.09</ele>
        <time>2023-01-06T14:56:18Z</time>
      </trkpt>
      <trkpt lat="44.35958" lon="1.53598">
        <ele>226.53</ele>
        <time>2023-01-06T14:56:30Z</time>
      </trkpt>
      <trkpt lat="44.35959" lon="1.53583">
        <ele>223.64</ele>
        <time>2023-01-06T14:56:43Z</time>
      </trkpt>
      <trkpt lat="44.35961" lon="1.53583">
        <ele>223.16</ele>
        <time>2023-01-06T14:56:45Z</time>
      </trkpt>
      <trkpt lat="44.35972" lon="1.53579">
        <ele>220.76</ele>
        <time>2023-01-06T14:57:00Z</time>
      </trkpt>
      <trkpt lat="44.35976" lon="1.53575">
        <ele>221.72</ele>
        <time>2023-01-06T14:57:22Z</time>
      </trkpt>
      <trkpt lat="44.35989" lon="1.53566">
        <ele>226.05</ele>
        <time>2023-01-06T14:57:38Z</time>
      </trkpt>
      <trkpt lat="44.35989" lon="1.53553">
        <ele>227.97</ele>
        <time>2023-01-06T14:57:52Z</time>
      </trkpt>
      <trkpt lat="44.35988" lon="1.5354">
        <ele>228.45</ele>
        <time>2023-01-06T14:58:05Z</time>
      </trkpt>
      <trkpt lat="44.35986" lon="1.53524">
        <ele>230.85</ele>
        <time>2023-01-06T14:58:18Z</time>
      </trkpt>
      <trkpt lat="44.35985" lon="1.53512">
        <ele>234.22</ele>
        <time>2023-01-06T14:58:30Z</time>
      </trkpt>
      <trkpt lat="44.35983" lon="1.53502">
        <ele>235.66</ele>
        <time>2023-01-06T14:58:43Z</time>
      </trkpt>
      <trkpt lat="44.3598" lon="1.53486">
        <ele>237.58</ele>
        <time>2023-01-06T14:58:59Z</time>
      </trkpt>
      <trkpt lat="44.3598" lon="1.53475">
        <ele>238.54</ele>
        <time>2023-01-06T14:59:12Z</time>
      </trkpt>
      <trkpt lat="44.35978" lon="1.53462">
        <ele>238.06</ele>
        <time>2023-01-06T14:59:28Z</time>
      </trkpt>
      <trkpt lat="44.35977" lon="1.53449">
        <ele>238.06</ele>
        <time>2023-01-06T14:59:43Z</time>
      </trkpt>
      <trkpt lat="44.35975" lon="1.53432">
        <ele>238.54</ele>
        <time>2023-01-06T15:00:00Z</time>
      </trkpt>
      <trkpt lat="44.35972" lon="1.53417">
        <ele>239.51</ele>
        <time>2023-01-06T15:00:15Z</time>
      </trkpt>
      <trkpt lat="44.35967" lon="1.534">
        <ele>240.95</ele>
        <time>2023-01-06T15:00:29Z</time>
      </trkpt>
      <trkpt lat="44.35965" lon="1.53394">
        <ele>242.87</ele>
        <time>2023-01-06T15:00:37Z</time>
      </trkpt>
      <trkpt lat="44.35961" lon="1.53378">
        <ele>242.87</ele>
        <time>2023-01-06T15:00:53Z</time>
      </trkpt>
      <trkpt lat="44.35954" lon="1.53358">
        <ele>241.43</ele>
        <time>2023-01-06T15:01:10Z</time>
      </trkpt>
      <trkpt lat="44.35949" lon="1.53343">
        <ele>241.43</ele>
        <time>2023-01-06T15:01:25Z</time>
      </trkpt>
      <trkpt lat="44.35941" lon="1.53321">
        <ele>241.91</ele>
        <time>2023-01-06T15:01:43Z</time>
      </trkpt>
      <trkpt lat="44.35934" lon="1.53302">
        <ele>239.99</ele>
        <time>2023-01-06T15:01:59Z</time>
      </trkpt>
      <trkpt lat="44.35932" lon="1.53293">
        <ele>240.47</ele>
        <time>2023-01-06T15:02:07Z</time>
      </trkpt>
      <trkpt lat="44.35932" lon="1.5329">
        <ele>240.47</ele>
        <time>2023-01-06T15:02:09Z</time>
      </trkpt>
      <trkpt lat="44.3594" lon="1.53275">
        <ele>244.31</ele>
        <time>2023-01-06T15:02:22Z</time>
      </trkpt>
      <trkpt lat="44.3595" lon="1.53256">
        <ele>247.2</ele>
        <time>2023-01-06T15:02:38Z</time>
      </trkpt>
      <trkpt lat="44.3596" lon="1.53242">
        <ele>248.64</ele>
        <time>2023-01-06T15:02:51Z</time>
      </trkpt>
      <trkpt lat="44.3597" lon="1.53229">
        <ele>250.56</ele>
        <time>2023-01-06T15:03:06Z</time>
      </trkpt>
      <trkpt lat="44.35971" lon="1.53225">
        <ele>250.08</ele>
        <time>2023-01-06T15:03:09Z</time>
      </trkpt>
      <trkpt lat="44.35969" lon="1.53219">
        <ele>250.08</ele>
        <time>2023-01-06T15:03:14Z</time>
      </trkpt>
      <trkpt lat="44.35971" lon="1.53208">
        <ele>249.6</ele>
        <time>2023-01-06T15:03:22Z</time>
      </trkpt>
      <trkpt lat="44.35977" lon="1.532">
        <ele>252.48</ele>
        <time>2023-01-06T15:03:31Z</time>
      </trkpt>
      <trkpt lat="44.3598" lon="1.53199">
        <ele>253.44</ele>
        <time>2023-01-06T15:03:34Z</time>
      </trkpt>
      <trkpt lat="44.35983" lon="1.53195">
        <ele>253.44</ele>
        <time>2023-01-06T15:03:38Z</time>
      </trkpt>
      <trkpt lat="44.35986" lon="1.53187">
        <ele>255.37</ele>
        <time>2023-01-06T15:03:51Z</time>
      </trkpt>
      <trkpt lat="44.35987" lon="1.53187">
        <ele>256.33</ele>
        <time>2023-01-06T15:04:05Z</time>
      </trkpt>
    </trkseg>
  </trk>
</gpx>